sensor_id;sensor_type;location;lat;lon;timestamp;P1;durP1;ratioP1;P2;durP2;ratioP2
76167;SDS011;64927;48.214;16.378;2023-06-24T00:02:16;2.33;;;1.15;;
76167;SDS011;64927;48.214;16.378;2023-06-24T00:04:42;2.25;;;1.00;;
76167;SDS011;64927;48.214;16.378;2023-06-24T00:07:08;1.23;;;0.93;;
76167;SDS011;64927;48.214;16.378;2023-06-24T00:09:33;1.13;;;0.77;;
76167;SDS011;64927;48.214;16.378;2023-06-24T00:11:59;1.58;;;0.88;;
76167;SDS011;64927;48.214;16.378;2023-06-24T00:14:25;3.03;;;0.98;;
76167;SDS011;64927;48.214;16.378;2023-06-24T00:16:54;1.08;;;0.95;;
76167;SDS011;64927;48.214;16.378;2023-06-24T00:19:24;0.73;;;0.60;;
76167;SDS011;64927;48.214;16.378;2023-06-24T00:21:51;2.72;;;1.00;;
76167;SDS011;64927;48.214;16.378;2023-06-24T00:24:22;2.85;;;0.98;;
76167;SDS011;64927;48.214;16.378;2023-06-24T00:26:54;3.60;;;0.98;;
76167;SDS011;64927;48.214;16.378;2023-06-24T00:29:20;0.77;;;0.75;;
76167;SDS011;64927;48.214;16.378;2023-06-24T00:31:45;1.27;;;0.90;;
76167;SDS011;64927;48.214;16.378;2023-06-24T00:34:11;1.55;;;0.88;;
76167;SDS011;64927;48.214;16.378;2023-06-24T00:36:37;3.25;;;1.00;;
76167;SDS011;64927;48.214;16.378;2023-06-24T00:39:03;3.53;;;1.02;;
76167;SDS011;64927;48.214;16.378;2023-06-24T00:41:32;1.88;;;0.82;;
76167;SDS011;64927;48.214;16.378;2023-06-24T00:43:59;0.77;;;0.70;;
76167;SDS011;64927;48.214;16.378;2023-06-24T00:46:26;1.85;;;1.00;;
76167;SDS011;64927;48.214;16.378;2023-06-24T00:48:56;2.15;;;0.98;;
76167;SDS011;64927;48.214;16.378;2023-06-24T00:51:22;1.10;;;0.85;;
76167;SDS011;64927;48.214;16.378;2023-06-24T00:53:59;2.92;;;1.30;;
76167;SDS011;64927;48.214;16.378;2023-06-24T00:56:26;2.85;;;1.00;;
76167;SDS011;64927;48.214;16.378;2023-06-24T00:58:55;1.38;;;1.00;;
76167;SDS011;64927;48.214;16.378;2023-06-24T01:01:24;1.17;;;1.08;;
76167;SDS011;64927;48.214;16.378;2023-06-24T01:03:50;1.00;;;0.90;;
76167;SDS011;64927;48.214;16.378;2023-06-24T01:06:16;2.22;;;1.00;;
76167;SDS011;64927;48.214;16.378;2023-06-24T01:08:42;3.60;;;1.08;;
76167;SDS011;64927;48.214;16.378;2023-06-24T01:11:08;1.48;;;1.20;;
76167;SDS011;64927;48.214;16.378;2023-06-24T01:13:34;6.72;;;1.23;;
76167;SDS011;64927;48.214;16.378;2023-06-24T01:16:04;1.92;;;1.15;;
76167;SDS011;64927;48.214;16.378;2023-06-24T01:18:40;1.85;;;1.02;;
76167;SDS011;64927;48.214;16.378;2023-06-24T01:29:42;1.70;;;1.15;;
76167;SDS011;64927;48.214;16.378;2023-06-24T01:32:25;4.28;;;1.08;;
76167;SDS011;64927;48.214;16.378;2023-06-24T01:35:02;1.48;;;0.98;;
76167;SDS011;64927;48.214;16.378;2023-06-24T01:37:46;2.78;;;1.10;;
76167;SDS011;64927;48.214;16.378;2023-06-24T01:40:26;1.05;;;0.90;;
76167;SDS011;64927;48.214;16.378;2023-06-24T01:42:59;1.60;;;1.30;;
76167;SDS011;64927;48.214;16.378;2023-06-24T01:45:28;1.30;;;1.00;;
76167;SDS011;64927;48.214;16.378;2023-06-24T01:47:59;2.33;;;1.25;;
76167;SDS011;64927;48.214;16.378;2023-06-24T01:50:29;1.40;;;1.00;;
76167;SDS011;64927;48.214;16.378;2023-06-24T01:52:57;1.85;;;1.30;;
76167;SDS011;64927;48.214;16.378;2023-06-24T01:55:26;2.22;;;1.20;;
76167;SDS011;64927;48.214;16.378;2023-06-24T01:57:56;2.22;;;1.30;;
76167;SDS011;64927;48.214;16.378;2023-06-24T02:00:23;6.60;;;1.33;;
76167;SDS011;64927;48.214;16.378;2023-06-24T02:02:49;2.05;;;1.30;;
76167;SDS011;64927;48.214;16.378;2023-06-24T02:05:19;1.52;;;1.20;;
76167;SDS011;64927;48.214;16.378;2023-06-24T02:07:46;2.42;;;1.35;;
76167;SDS011;64927;48.214;16.378;2023-06-24T02:10:14;1.75;;;1.33;;
76167;SDS011;64927;48.214;16.378;2023-06-24T02:12:43;1.70;;;1.50;;
76167;SDS011;64927;48.214;16.378;2023-06-24T02:15:10;1.77;;;1.48;;
76167;SDS011;64927;48.214;16.378;2023-06-24T02:17:36;1.77;;;1.27;;
76167;SDS011;64927;48.214;16.378;2023-06-24T02:20:04;2.05;;;1.42;;
76167;SDS011;64927;48.214;16.378;2023-06-24T02:22:32;1.98;;;1.20;;
76167;SDS011;64927;48.214;16.378;2023-06-24T02:24:58;1.92;;;1.30;;
76167;SDS011;64927;48.214;16.378;2023-06-24T02:27:24;1.90;;;1.30;;
76167;SDS011;64927;48.214;16.378;2023-06-24T02:29:50;2.15;;;1.20;;
76167;SDS011;64927;48.214;16.378;2023-06-24T02:32:17;4.30;;;1.40;;
76167;SDS011;64927;48.214;16.378;2023-06-24T02:34:46;1.50;;;1.20;;
76167;SDS011;64927;48.214;16.378;2023-06-24T02:37:11;2.10;;;1.60;;
76167;SDS011;64927;48.214;16.378;2023-06-24T02:39:37;2.17;;;1.38;;
76167;SDS011;64927;48.214;16.378;2023-06-24T02:42:08;3.00;;;1.73;;
76167;SDS011;64927;48.214;16.378;2023-06-24T02:44:38;2.08;;;1.40;;
76167;SDS011;64927;48.214;16.378;2023-06-24T02:47:07;2.13;;;1.60;;
76167;SDS011;64927;48.214;16.378;2023-06-24T02:49:36;2.03;;;1.52;;
76167;SDS011;64927;48.214;16.378;2023-06-24T02:52:03;1.45;;;1.10;;
76167;SDS011;64927;48.214;16.378;2023-06-24T02:54:30;1.95;;;1.40;;
76167;SDS011;64927;48.214;16.378;2023-06-24T02:56:57;1.60;;;1.30;;
76167;SDS011;64927;48.214;16.378;2023-06-24T02:59:24;1.33;;;1.20;;
76167;SDS011;64927;48.214;16.378;2023-06-24T03:01:50;1.75;;;1.13;;
76167;SDS011;64927;48.214;16.378;2023-06-24T03:04:18;1.55;;;1.20;;
76167;SDS011;64927;48.214;16.378;2023-06-24T03:06:45;1.95;;;1.63;;
76167;SDS011;64927;48.214;16.378;2023-06-24T03:09:14;2.13;;;1.10;;
76167;SDS011;64927;48.214;16.378;2023-06-24T03:11:43;1.42;;;1.17;;
76167;SDS011;64927;48.214;16.378;2023-06-24T03:14:12;1.85;;;1.30;;
76167;SDS011;64927;48.214;16.378;2023-06-24T03:16:40;2.05;;;1.60;;
76167;SDS011;64927;48.214;16.378;2023-06-24T03:19:06;1.83;;;1.20;;
76167;SDS011;64927;48.214;16.378;2023-06-24T03:21:32;1.10;;;1.00;;
76167;SDS011;64927;48.214;16.378;2023-06-24T03:23:58;2.83;;;1.15;;
76167;SDS011;64927;48.214;16.378;2023-06-24T03:26:30;1.80;;;1.25;;
76167;SDS011;64927;48.214;16.378;2023-06-24T03:29:00;1.75;;;1.48;;
76167;SDS011;64927;48.214;16.378;2023-06-24T03:31:26;1.38;;;0.90;;
76167;SDS011;64927;48.214;16.378;2023-06-24T03:33:52;1.00;;;0.90;;
76167;SDS011;64927;48.214;16.378;2023-06-24T03:36:17;2.10;;;1.20;;
76167;SDS011;64927;48.214;16.378;2023-06-24T03:38:45;1.08;;;0.98;;
76167;SDS011;64927;48.214;16.378;2023-06-24T03:41:11;3.53;;;1.17;;
76167;SDS011;64927;48.214;16.378;2023-06-24T03:43:37;2.65;;;1.58;;
76167;SDS011;64927;48.214;16.378;2023-06-24T03:46:03;0.82;;;0.68;;
76167;SDS011;64927;48.214;16.378;2023-06-24T03:48:28;1.17;;;0.93;;
76167;SDS011;64927;48.214;16.378;2023-06-24T03:50:54;3.53;;;1.13;;
76167;SDS011;64927;48.214;16.378;2023-06-24T03:53:19;1.25;;;0.90;;
76167;SDS011;64927;48.214;16.378;2023-06-24T03:55:45;0.80;;;0.70;;
76167;SDS011;64927;48.214;16.378;2023-06-24T03:58:11;1.00;;;0.90;;
76167;SDS011;64927;48.214;16.378;2023-06-24T04:00:36;1.00;;;0.90;;
76167;SDS011;64927;48.214;16.378;2023-06-24T04:03:05;1.55;;;0.98;;
76167;SDS011;64927;48.214;16.378;2023-06-24T04:05:32;1.00;;;0.80;;
76167;SDS011;64927;48.214;16.378;2023-06-24T04:07:58;0.80;;;0.70;;
76167;SDS011;64927;48.214;16.378;2023-06-24T04:10:24;1.10;;;0.80;;
76167;SDS011;64927;48.214;16.378;2023-06-24T04:12:49;0.63;;;0.60;;
76167;SDS011;64927;48.214;16.378;2023-06-24T04:15:15;0.65;;;0.60;;
76167;SDS011;64927;48.214;16.378;2023-06-24T04:17:41;1.00;;;0.50;;
76167;SDS011;64927;48.214;16.378;2023-06-24T04:20:09;0.45;;;0.45;;
76167;SDS011;64927;48.214;16.378;2023-06-24T04:22:40;0.43;;;0.43;;
76167;SDS011;64927;48.214;16.378;2023-06-24T04:25:06;0.93;;;0.70;;
76167;SDS011;64927;48.214;16.378;2023-06-24T04:27:33;0.45;;;0.45;;
76167;SDS011;64927;48.214;16.378;2023-06-24T04:30:01;0.55;;;0.47;;
76167;SDS011;64927;48.214;16.378;2023-06-24T04:32:30;0.40;;;0.40;;
76167;SDS011;64927;48.214;16.378;2023-06-24T04:34:55;1.30;;;0.50;;
76167;SDS011;64927;48.214;16.378;2023-06-24T04:37:22;0.43;;;0.43;;
76167;SDS011;64927;48.214;16.378;2023-06-24T04:39:48;0.82;;;0.40;;
76167;SDS011;64927;48.214;16.378;2023-06-24T04:42:14;0.40;;;0.30;;
76167;SDS011;64927;48.214;16.378;2023-06-24T04:44:39;0.32;;;0.30;;
76167;SDS011;64927;48.214;16.378;2023-06-24T04:47:05;1.13;;;0.50;;
76167;SDS011;64927;48.214;16.378;2023-06-24T04:49:33;1.17;;;0.57;;
76167;SDS011;64927;48.214;16.378;2023-06-24T04:52:02;0.32;;;0.32;;
76167;SDS011;64927;48.214;16.378;2023-06-24T04:54:28;0.30;;;0.30;;
76167;SDS011;64927;48.214;16.378;2023-06-24T04:56:53;0.40;;;0.40;;
76167;SDS011;64927;48.214;16.378;2023-06-24T04:59:21;0.40;;;0.40;;
76167;SDS011;64927;48.214;16.378;2023-06-24T05:01:46;0.50;;;0.40;;
76167;SDS011;64927;48.214;16.378;2023-06-24T05:04:12;1.35;;;0.52;;
76167;SDS011;64927;48.214;16.378;2023-06-24T05:06:38;0.43;;;0.35;;
76167;SDS011;64927;48.214;16.378;2023-06-24T05:09:06;0.65;;;0.52;;
76167;SDS011;64927;48.214;16.378;2023-06-24T05:11:31;0.60;;;0.50;;
76167;SDS011;64927;48.214;16.378;2023-06-24T05:13:57;0.43;;;0.40;;
76167;SDS011;64927;48.214;16.378;2023-06-24T05:16:24;0.55;;;0.50;;
76167;SDS011;64927;48.214;16.378;2023-06-24T05:18:52;0.20;;;0.20;;
76167;SDS011;64927;48.214;16.378;2023-06-24T05:21:18;0.38;;;0.38;;
76167;SDS011;64927;48.214;16.378;2023-06-24T05:23:44;0.30;;;0.30;;
76167;SDS011;64927;48.214;16.378;2023-06-24T05:26:09;0.55;;;0.30;;
76167;SDS011;64927;48.214;16.378;2023-06-24T05:28:36;0.55;;;0.55;;
76167;SDS011;64927;48.214;16.378;2023-06-24T05:31:02;0.38;;;0.38;;
76167;SDS011;64927;48.214;16.378;2023-06-24T05:33:27;0.38;;;0.38;;
76167;SDS011;64927;48.214;16.378;2023-06-24T05:35:53;2.00;;;0.30;;
76167;SDS011;64927;48.214;16.378;2023-06-24T05:38:18;0.45;;;0.45;;
76167;SDS011;64927;48.214;16.378;2023-06-24T05:40:44;0.30;;;0.30;;
76167;SDS011;64927;48.214;16.378;2023-06-24T05:43:12;0.90;;;0.45;;
76167;SDS011;64927;48.214;16.378;2023-06-24T05:45:40;2.05;;;0.40;;
76167;SDS011;64927;48.214;16.378;2023-06-24T05:48:08;0.25;;;0.20;;
76167;SDS011;64927;48.214;16.378;2023-06-24T05:50:36;0.30;;;0.30;;
76167;SDS011;64927;48.214;16.378;2023-06-24T05:53:04;0.30;;;0.30;;
76167;SDS011;64927;48.214;16.378;2023-06-24T05:55:29;0.30;;;0.20;;
76167;SDS011;64927;48.214;16.378;2023-06-24T05:57:58;0.40;;;0.40;;
76167;SDS011;64927;48.214;16.378;2023-06-24T06:00:23;0.30;;;0.30;;
76167;SDS011;64927;48.214;16.378;2023-06-24T06:02:51;0.40;;;0.40;;
76167;SDS011;64927;48.214;16.378;2023-06-24T06:05:17;0.30;;;0.20;;
76167;SDS011;64927;48.214;16.378;2023-06-24T06:07:43;0.32;;;0.20;;
76167;SDS011;64927;48.214;16.378;2023-06-24T06:10:08;0.88;;;0.30;;
76167;SDS011;64927;48.214;16.378;2023-06-24T06:12:35;0.10;;;0.10;;
76167;SDS011;64927;48.214;16.378;2023-06-24T06:15:01;0.10;;;0.10;;
76167;SDS011;64927;48.214;16.378;2023-06-24T06:17:26;0.20;;;0.20;;
76167;SDS011;64927;48.214;16.378;2023-06-24T06:19:52;0.20;;;0.20;;
76167;SDS011;64927;48.214;16.378;2023-06-24T06:22:18;0.45;;;0.30;;
76167;SDS011;64927;48.214;16.378;2023-06-24T06:24:43;0.35;;;0.30;;
76167;SDS011;64927;48.214;16.378;2023-06-24T06:27:09;0.40;;;0.40;;
76167;SDS011;64927;48.214;16.378;2023-06-24T06:29:39;0.30;;;0.30;;
76167;SDS011;64927;48.214;16.378;2023-06-24T06:32:05;0.88;;;0.32;;
76167;SDS011;64927;48.214;16.378;2023-06-24T06:34:30;0.15;;;0.15;;
76167;SDS011;64927;48.214;16.378;2023-06-24T06:36:56;0.80;;;0.75;;
76167;SDS011;64927;48.214;16.378;2023-06-24T06:39:22;0.60;;;0.30;;
76167;SDS011;64927;48.214;16.378;2023-06-24T06:41:47;0.30;;;0.28;;
76167;SDS011;64927;48.214;16.378;2023-06-24T06:44:15;0.30;;;0.30;;
76167;SDS011;64927;48.214;16.378;2023-06-24T06:46:40;0.10;;;0.10;;
76167;SDS011;64927;48.214;16.378;2023-06-24T06:49:06;1.48;;;0.32;;
76167;SDS011;64927;48.214;16.378;2023-06-24T06:51:34;0.40;;;0.40;;
76167;SDS011;64927;48.214;16.378;2023-06-24T06:54:00;0.30;;;0.30;;
76167;SDS011;64927;48.214;16.378;2023-06-24T06:56:27;3.38;;;0.50;;
76167;SDS011;64927;48.214;16.378;2023-06-24T06:58:53;0.43;;;0.30;;
76167;SDS011;64927;48.214;16.378;2023-06-24T07:01:19;0.35;;;0.30;;
76167;SDS011;64927;48.214;16.378;2023-06-24T07:03:45;0.65;;;0.60;;
76167;SDS011;64927;48.214;16.378;2023-06-24T07:06:10;0.40;;;0.38;;
76167;SDS011;64927;48.214;16.378;2023-06-24T07:08:36;1.35;;;0.50;;
76167;SDS011;64927;48.214;16.378;2023-06-24T07:11:02;0.40;;;0.40;;
76167;SDS011;64927;48.214;16.378;2023-06-24T07:13:28;0.77;;;0.75;;
76167;SDS011;64927;48.214;16.378;2023-06-24T07:15:56;0.50;;;0.50;;
76167;SDS011;64927;48.214;16.378;2023-06-24T07:18:22;0.93;;;0.52;;
76167;SDS011;64927;48.214;16.378;2023-06-24T07:20:48;1.00;;;0.90;;
76167;SDS011;64927;48.214;16.378;2023-06-24T07:23:14;0.65;;;0.57;;
76167;SDS011;64927;48.214;16.378;2023-06-24T07:25:39;1.08;;;0.70;;
76167;SDS011;64927;48.214;16.378;2023-06-24T07:28:05;1.70;;;0.88;;
76167;SDS011;64927;48.214;16.378;2023-06-24T07:30:31;1.85;;;0.90;;
76167;SDS011;64927;48.214;16.378;2023-06-24T07:32:56;1.70;;;0.93;;
76167;SDS011;64927;48.214;16.378;2023-06-24T07:35:22;1.77;;;0.70;;
76167;SDS011;64927;48.214;16.378;2023-06-24T07:37:47;1.10;;;1.00;;
76167;SDS011;64927;48.214;16.378;2023-06-24T07:40:14;1.83;;;0.90;;
76167;SDS011;64927;48.214;16.378;2023-06-24T07:42:40;1.05;;;0.88;;
76167;SDS011;64927;48.214;16.378;2023-06-24T07:45:06;2.70;;;0.70;;
76167;SDS011;64927;48.214;16.378;2023-06-24T07:47:34;0.70;;;0.70;;
76167;SDS011;64927;48.214;16.378;2023-06-24T07:50:02;2.20;;;0.90;;
76167;SDS011;64927;48.214;16.378;2023-06-24T07:52:28;1.40;;;1.00;;
76167;SDS011;64927;48.214;16.378;2023-06-24T07:54:56;1.70;;;1.17;;
76167;SDS011;64927;48.214;16.378;2023-06-24T07:57:24;1.05;;;0.95;;
76167;SDS011;64927;48.214;16.378;2023-06-24T07:59:52;1.58;;;1.20;;
76167;SDS011;64927;48.214;16.378;2023-06-24T08:02:19;2.72;;;1.30;;
76167;SDS011;64927;48.214;16.378;2023-06-24T08:04:45;1.58;;;1.20;;
76167;SDS011;64927;48.214;16.378;2023-06-24T08:07:10;2.70;;;1.00;;
76167;SDS011;64927;48.214;16.378;2023-06-24T08:09:36;2.08;;;1.20;;
76167;SDS011;64927;48.214;16.378;2023-06-24T08:12:02;1.65;;;1.10;;
76167;SDS011;64927;48.214;16.378;2023-06-24T08:14:28;1.73;;;1.25;;
76167;SDS011;64927;48.214;16.378;2023-06-24T08:16:54;1.60;;;1.23;;
76167;SDS011;64927;48.214;16.378;2023-06-24T08:19:19;1.92;;;1.55;;
76167;SDS011;64927;48.214;16.378;2023-06-24T08:21:47;1.50;;;1.30;;
76167;SDS011;64927;48.214;16.378;2023-06-24T08:24:13;1.55;;;1.45;;
76167;SDS011;64927;48.214;16.378;2023-06-24T08:26:41;2.65;;;1.98;;
76167;SDS011;64927;48.214;16.378;2023-06-24T08:29:07;1.90;;;1.70;;
76167;SDS011;64927;48.214;16.378;2023-06-24T08:31:34;2.28;;;1.50;;
76167;SDS011;64927;48.214;16.378;2023-06-24T08:34:00;1.92;;;1.65;;
76167;SDS011;64927;48.214;16.378;2023-06-24T08:36:31;4.97;;;1.40;;
76167;SDS011;64927;48.214;16.378;2023-06-24T08:38:56;4.40;;;1.70;;
76167;SDS011;64927;48.214;16.378;2023-06-24T08:41:24;3.20;;;2.40;;
76167;SDS011;64927;48.214;16.378;2023-06-24T08:43:52;2.15;;;1.50;;
76167;SDS011;64927;48.214;16.378;2023-06-24T08:46:21;2.10;;;1.60;;
76167;SDS011;64927;48.214;16.378;2023-06-24T08:48:49;5.05;;;1.80;;
76167;SDS011;64927;48.214;16.378;2023-06-24T08:51:27;3.47;;;2.30;;
76167;SDS011;64927;48.214;16.378;2023-06-24T08:53:56;5.32;;;1.65;;
76167;SDS011;64927;48.214;16.378;2023-06-24T08:56:23;3.92;;;2.10;;
76167;SDS011;64927;48.214;16.378;2023-06-24T08:58:50;2.13;;;1.60;;
76167;SDS011;64927;48.214;16.378;2023-06-24T09:01:16;4.13;;;1.95;;
76167;SDS011;64927;48.214;16.378;2023-06-24T09:03:42;3.33;;;2.20;;
76167;SDS011;64927;48.214;16.378;2023-06-24T09:06:08;3.13;;;1.98;;
76167;SDS011;64927;48.214;16.378;2023-06-24T09:08:36;2.92;;;2.30;;
76167;SDS011;64927;48.214;16.378;2023-06-24T09:11:04;3.15;;;2.50;;
76167;SDS011;64927;48.214;16.378;2023-06-24T09:13:36;6.13;;;2.38;;
76167;SDS011;64927;48.214;16.378;2023-06-24T09:16:14;3.88;;;2.72;;
76167;SDS011;64927;48.214;16.378;2023-06-24T09:18:40;2.63;;;2.05;;
76167;SDS011;64927;48.214;16.378;2023-06-24T09:21:12;3.05;;;2.40;;
76167;SDS011;64927;48.214;16.378;2023-06-24T09:23:38;2.20;;;1.90;;
76167;SDS011;64927;48.214;16.378;2023-06-24T09:26:05;5.32;;;2.38;;
76167;SDS011;64927;48.214;16.378;2023-06-24T09:28:34;2.78;;;2.00;;
76167;SDS011;64927;48.214;16.378;2023-06-24T09:31:07;3.35;;;1.92;;
76167;SDS011;64927;48.214;16.378;2023-06-24T09:33:36;2.58;;;1.95;;
76167;SDS011;64927;48.214;16.378;2023-06-24T09:36:02;3.28;;;2.00;;
76167;SDS011;64927;48.214;16.378;2023-06-24T09:38:34;2.92;;;1.92;;
76167;SDS011;64927;48.214;16.378;2023-06-24T09:41:01;2.20;;;1.63;;
76167;SDS011;64927;48.214;16.378;2023-06-24T09:43:29;2.53;;;1.95;;
76167;SDS011;64927;48.214;16.378;2023-06-24T09:45:55;5.90;;;3.67;;
76167;SDS011;64927;48.214;16.378;2023-06-24T09:48:22;2.80;;;1.73;;
76167;SDS011;64927;48.214;16.378;2023-06-24T09:50:47;1.73;;;1.30;;
76167;SDS011;64927;48.214;16.378;2023-06-24T09:53:13;2.92;;;1.75;;
76167;SDS011;64927;48.214;16.378;2023-06-24T09:55:40;2.63;;;1.77;;
76167;SDS011;64927;48.214;16.378;2023-06-24T09:58:08;2.97;;;1.40;;
76167;SDS011;64927;48.214;16.378;2023-06-24T10:00:36;3.42;;;1.95;;
76167;SDS011;64927;48.214;16.378;2023-06-24T10:03:02;2.72;;;2.10;;
76167;SDS011;64927;48.214;16.378;2023-06-24T10:05:28;5.15;;;2.00;;
76167;SDS011;64927;48.214;16.378;2023-06-24T10:07:54;4.30;;;1.60;;
76167;SDS011;64927;48.214;16.378;2023-06-24T10:10:20;2.30;;;2.05;;
76167;SDS011;64927;48.214;16.378;2023-06-24T10:12:45;2.72;;;1.88;;
76167;SDS011;64927;48.214;16.378;2023-06-24T10:15:13;3.50;;;2.13;;
76167;SDS011;64927;48.214;16.378;2023-06-24T10:17:40;2.63;;;2.30;;
76167;SDS011;64927;48.214;16.378;2023-06-24T10:20:06;2.78;;;2.33;;
76167;SDS011;64927;48.214;16.378;2023-06-24T10:22:32;2.70;;;2.20;;
76167;SDS011;64927;48.214;16.378;2023-06-24T10:25:01;2.75;;;2.42;;
76167;SDS011;64927;48.214;16.378;2023-06-24T10:27:27;2.80;;;2.20;;
76167;SDS011;64927;48.214;16.378;2023-06-24T10:30:01;2.47;;;2.28;;
76167;SDS011;64927;48.214;16.378;2023-06-24T10:32:38;4.25;;;3.05;;
76167;SDS011;64927;48.214;16.378;2023-06-24T10:35:07;3.10;;;2.58;;
76167;SDS011;64927;48.214;16.378;2023-06-24T10:37:59;3.45;;;3.00;;
76167;SDS011;64927;48.214;16.378;2023-06-24T10:43:23;2.95;;;2.60;;
76167;SDS011;64927;48.214;16.378;2023-06-24T10:45:52;2.85;;;2.50;;
76167;SDS011;64927;48.214;16.378;2023-06-24T10:48:18;3.08;;;2.75;;
76167;SDS011;64927;48.214;16.378;2023-06-24T10:50:50;4.65;;;2.63;;
76167;SDS011;64927;48.214;16.378;2023-06-24T10:53:16;3.65;;;2.50;;
76167;SDS011;64927;48.214;16.378;2023-06-24T10:55:43;3.42;;;2.53;;
76167;SDS011;64927;48.214;16.378;2023-06-24T10:58:11;3.55;;;3.22;;
76167;SDS011;64927;48.214;16.378;2023-06-24T11:00:41;4.15;;;3.58;;
76167;SDS011;64927;48.214;16.378;2023-06-24T11:03:12;4.70;;;3.42;;
76167;SDS011;64927;48.214;16.378;2023-06-24T11:05:40;5.07;;;3.85;;
76167;SDS011;64927;48.214;16.378;2023-06-24T11:08:07;4.43;;;3.42;;
76167;SDS011;64927;48.214;16.378;2023-06-24T11:10:33;4.50;;;3.60;;
76167;SDS011;64927;48.214;16.378;2023-06-24T11:13:09;9.00;;;5.95;;
76167;SDS011;64927;48.214;16.378;2023-06-24T11:15:35;4.93;;;3.83;;
76167;SDS011;64927;48.214;16.378;2023-06-24T11:18:04;7.10;;;4.97;;
76167;SDS011;64927;48.214;16.378;2023-06-24T11:20:30;5.50;;;4.35;;
76167;SDS011;64927;48.214;16.378;2023-06-24T11:22:55;5.72;;;4.18;;
76167;SDS011;64927;48.214;16.378;2023-06-24T11:25:22;6.65;;;4.38;;
76167;SDS011;64927;48.214;16.378;2023-06-24T11:27:50;6.03;;;4.15;;
76167;SDS011;64927;48.214;16.378;2023-06-24T11:30:18;7.65;;;4.30;;
76167;SDS011;64927;48.214;16.378;2023-06-24T11:32:46;5.13;;;4.38;;
76167;SDS011;64927;48.214;16.378;2023-06-24T11:35:13;8.70;;;4.65;;
76167;SDS011;64927;48.214;16.378;2023-06-24T11:37:43;5.65;;;4.47;;
76167;SDS011;64927;48.214;16.378;2023-06-24T11:40:11;6.22;;;3.92;;
76167;SDS011;64927;48.214;16.378;2023-06-24T11:42:41;7.15;;;4.53;;
76167;SDS011;64927;48.214;16.378;2023-06-24T11:45:11;4.95;;;4.45;;
76167;SDS011;64927;48.214;16.378;2023-06-24T11:47:40;9.88;;;4.63;;
76167;SDS011;64927;48.214;16.378;2023-06-24T11:50:07;5.18;;;4.15;;
76167;SDS011;64927;48.214;16.378;2023-06-24T11:55:17;4.97;;;4.10;;
76167;SDS011;64927;48.214;16.378;2023-06-24T12:00:18;5.38;;;4.20;;
76167;SDS011;64927;48.214;16.378;2023-06-24T12:02:45;6.20;;;5.00;;
76167;SDS011;64927;48.214;16.378;2023-06-24T12:05:10;4.90;;;3.42;;
76167;SDS011;64927;48.214;16.378;2023-06-24T12:07:38;6.70;;;4.53;;
76167;SDS011;64927;48.214;16.378;2023-06-24T12:10:05;6.25;;;4.63;;
76167;SDS011;64927;48.214;16.378;2023-06-24T12:12:35;6.38;;;3.78;;
76167;SDS011;64927;48.214;16.378;2023-06-24T12:15:01;4.88;;;3.58;;
76167;SDS011;64927;48.214;16.378;2023-06-24T12:17:26;5.35;;;4.10;;
76167;SDS011;64927;48.214;16.378;2023-06-24T12:19:52;4.80;;;3.90;;
76167;SDS011;64927;48.214;16.378;2023-06-24T12:22:17;6.55;;;4.28;;
76167;SDS011;64927;48.214;16.378;2023-06-24T12:24:43;4.78;;;4.00;;
76167;SDS011;64927;48.214;16.378;2023-06-24T12:27:09;5.82;;;4.07;;
76167;SDS011;64927;48.214;16.378;2023-06-24T12:29:34;6.75;;;5.13;;
76167;SDS011;64927;48.214;16.378;2023-06-24T12:32:00;5.32;;;4.30;;
76167;SDS011;64927;48.214;16.378;2023-06-24T12:34:25;6.68;;;4.25;;
76167;SDS011;64927;48.214;16.378;2023-06-24T12:36:51;7.45;;;4.63;;
76167;SDS011;64927;48.214;16.378;2023-06-24T12:39:17;4.65;;;4.07;;
76167;SDS011;64927;48.214;16.378;2023-06-24T12:41:42;6.55;;;4.75;;
76167;SDS011;64927;48.214;16.378;2023-06-24T12:44:08;6.63;;;4.60;;
76167;SDS011;64927;48.214;16.378;2023-06-24T12:46:33;7.40;;;4.78;;
76167;SDS011;64927;48.214;16.378;2023-06-24T12:48:59;5.57;;;4.75;;
76167;SDS011;64927;48.214;16.378;2023-06-24T12:51:24;5.78;;;5.00;;
76167;SDS011;64927;48.214;16.378;2023-06-24T12:53:50;5.15;;;4.25;;
76167;SDS011;64927;48.214;16.378;2023-06-24T12:56:16;7.28;;;4.85;;
76167;SDS011;64927;48.214;16.378;2023-06-24T12:58:41;6.18;;;5.03;;
76167;SDS011;64927;48.214;16.378;2023-06-24T13:01:07;8.60;;;5.15;;
76167;SDS011;64927;48.214;16.378;2023-06-24T13:03:33;8.57;;;5.00;;
76167;SDS011;64927;48.214;16.378;2023-06-24T13:05:58;7.03;;;4.45;;
76167;SDS011;64927;48.214;16.378;2023-06-24T13:08:24;7.32;;;5.20;;
76167;SDS011;64927;48.214;16.378;2023-06-24T13:10:49;5.68;;;4.63;;
76167;SDS011;64927;48.214;16.378;2023-06-24T13:13:15;6.28;;;4.95;;
76167;SDS011;64927;48.214;16.378;2023-06-24T13:15:40;9.02;;;4.88;;
76167;SDS011;64927;48.214;16.378;2023-06-24T13:18:06;6.68;;;5.18;;
76167;SDS011;64927;48.214;16.378;2023-06-24T13:20:34;8.48;;;5.32;;
76167;SDS011;64927;48.214;16.378;2023-06-24T13:22:59;7.53;;;5.07;;
76167;SDS011;64927;48.214;16.378;2023-06-24T13:25:25;6.47;;;4.65;;
76167;SDS011;64927;48.214;16.378;2023-06-24T13:27:51;7.78;;;5.40;;
76167;SDS011;64927;48.214;16.378;2023-06-24T13:30:17;8.45;;;5.20;;
76167;SDS011;64927;48.214;16.378;2023-06-24T13:32:43;5.57;;;4.47;;
76167;SDS011;64927;48.214;16.378;2023-06-24T13:35:08;7.32;;;4.78;;
76167;SDS011;64927;48.214;16.378;2023-06-24T13:37:34;9.18;;;5.07;;
76167;SDS011;64927;48.214;16.378;2023-06-24T13:40:00;7.65;;;5.22;;
76167;SDS011;64927;48.214;16.378;2023-06-24T13:42:25;10.07;;;5.45;;
76167;SDS011;64927;48.214;16.378;2023-06-24T13:44:51;6.35;;;5.05;;
76167;SDS011;64927;48.214;16.378;2023-06-24T13:47:17;7.88;;;5.10;;
76167;SDS011;64927;48.214;16.378;2023-06-24T13:49:42;7.32;;;5.25;;
76167;SDS011;64927;48.214;16.378;2023-06-24T13:52:08;5.43;;;4.53;;
76167;SDS011;64927;48.214;16.378;2023-06-24T13:54:33;7.20;;;5.47;;
76167;SDS011;64927;48.214;16.378;2023-06-24T13:57:00;9.00;;;4.60;;
76167;SDS011;64927;48.214;16.378;2023-06-24T13:59:26;6.72;;;4.93;;
76167;SDS011;64927;48.214;16.378;2023-06-24T14:01:51;7.03;;;4.88;;
76167;SDS011;64927;48.214;16.378;2023-06-24T14:04:24;8.23;;;5.15;;
76167;SDS011;64927;48.214;16.378;2023-06-24T14:06:50;6.35;;;4.68;;
76167;SDS011;64927;48.214;16.378;2023-06-24T14:09:15;8.52;;;5.22;;
76167;SDS011;64927;48.214;16.378;2023-06-24T14:11:41;8.13;;;4.80;;
76167;SDS011;64927;48.214;16.378;2023-06-24T14:14:07;6.25;;;5.07;;
76167;SDS011;64927;48.214;16.378;2023-06-24T14:16:37;5.97;;;4.97;;
76167;SDS011;64927;48.214;16.378;2023-06-24T14:19:03;5.90;;;4.78;;
76167;SDS011;64927;48.214;16.378;2023-06-24T14:21:28;10.35;;;5.13;;
76167;SDS011;64927;48.214;16.378;2023-06-24T14:23:57;5.90;;;4.82;;
76167;SDS011;64927;48.214;16.378;2023-06-24T14:26:22;7.25;;;5.60;;
76167;SDS011;64927;48.214;16.378;2023-06-24T14:28:48;7.38;;;5.10;;
76167;SDS011;64927;48.214;16.378;2023-06-24T14:31:14;7.38;;;5.25;;
76167;SDS011;64927;48.214;16.378;2023-06-24T14:33:40;7.20;;;5.38;;
76167;SDS011;64927;48.214;16.378;2023-06-24T14:36:05;6.43;;;5.00;;
76167;SDS011;64927;48.214;16.378;2023-06-24T14:38:31;8.63;;;4.88;;
76167;SDS011;64927;48.214;16.378;2023-06-24T14:40:57;7.10;;;5.07;;
76167;SDS011;64927;48.214;16.378;2023-06-24T14:43:25;6.35;;;5.22;;
76167;SDS011;64927;48.214;16.378;2023-06-24T14:45:51;6.63;;;4.90;;
76167;SDS011;64927;48.214;16.378;2023-06-24T14:48:17;9.55;;;5.20;;
76167;SDS011;64927;48.214;16.378;2023-06-24T14:50:42;5.68;;;4.80;;